Time;durP1;ratioP1;P1;durP2;ratioP2;P2;SDS_P1;SDS_P2;PMS_P1;PMS_P2;Temp;Humidity;BMP_temperature;BMP_pressure;BME280_temperature;BME280_humidity;BME280_pressure;Samples;Min_cycle;Max_cycle;Signal;HPM_P1;HPM_P2
2023/10/09 00:03:04;;;;;;;;;;;;;;;;;;5032378;28;19983;-77
2023/10/09 00:08:05;;;;;;;;;;;;;;;;;;5032454;28;19982;-78
2023/10/09 00:10:37;;;;;;;;;;;;;;;;;;5032318;28;19986;-77
2023/10/09 00:13:03;;;;;;;;;;;;;;;;;;5030879;28;20014;-79
2023/10/09 00:15:32;;;;;;;;;;;;;;;;;;5032018;28;19997;-76
2023/10/09 00:17:58;;;;;;;;;;;;;;;;;;5032209;28;19997;-77
2023/10/09 00:20:38;;;;;;;;;;;;;;;;;;5032223;28;20395;-77
2023/10/09 00:23:12;;;;;;;;;;;;;;;;;;5031962;28;20028;-77
2023/10/09 00:25:44;;;;;;;;;;;;;;;;;;5032074;28;19990;-76
2023/10/09 00:28:11;;;;;;;;;;;;;;;;;;5031973;28;20454;-76
2023/10/09 00:30:37;;;;;;;;;;;;;;;;;;5031769;28;19993;-78
2023/10/09 00:33:07;;;;;;;;;;;;;;;;;;5031960;28;20014;-76
2023/10/09 00:35:36;;;;;;;;;;;;;;;;;;5030492;28;20088;-78
2023/10/09 00:38:14;;;;;;;;;;;;;;;;;;5032042;28;19990;-77
2023/10/09 00:40:46;;;;;;;;;;;;;;;;;;5030298;28;20493;-77
2023/10/09 00:43:13;;;;;;;;;;;;;;;;;;5031609;28;19986;-76
2023/10/09 00:45:40;;;;;;;;;;;;;;;;;;5031452;28;20022;-78
2023/10/09 00:48:06;;;;;;;;;;;;;;;;;;5031159;28;19982;-78
2023/10/09 00:50:35;;;;;;;;;;;;;;;;;;5031641;28;19990;-77
2023/10/09 00:53:02;;;;;;;;;;;;;;;;;;5031699;28;20009;-77
2023/10/09 00:55:44;;;;;;;;;;;;;;;;;;5031512;28;20016;-77
2023/10/09 00:58:12;;;;;;;;;;;;;;;;;;5031680;28;19982;-76
2023/10/09 01:05:51;;;;;;;;;;;;;;;;;;5031567;28;19997;-79
2023/10/09 01:08:26;;;;;;;;;;;;;;;;;;5031334;28;19993;-78
2023/10/09 01:11:47;;;;;;;;;;;;;;;;;;5030018;28;19986;-77
2023/10/09 01:16:16;;;;;;;;;;;;;;;;;;5031528;28;19982;-77
2023/10/09 01:18:43;;;;;;;;;;;;;;;;;;5031427;28;20080;-79
2023/10/09 01:21:12;;;;;;;;;;;;;;;;;;5031313;28;19994;-78
2023/10/09 01:23:43;;;;;;;;;;;;;;;;;;5029951;28;20117;-78
2023/10/09 01:26:09;;;;;;;;;;;;;;;;;;5029826;28;19994;-79
2023/10/09 01:28:35;;;;;;;;;;;;;;;;;;5030129;28;19986;-78
2023/10/09 01:31:01;;;;;;;;;;;;;;;;;;5031236;28;20120;-77
2023/10/09 01:33:27;;;;;;;;;;;;;;;;;;5031482;28;20084;-78
2023/10/09 01:35:59;;;;;;;;;;;;;;;;;;5029727;28;20008;-77
2023/10/09 01:38:40;;;;;;;;;;;;;;;;;;5031495;28;19990;-78
2023/10/09 01:41:09;;;;;;;;;;;;;;;;;;5031253;28;19986;-78
2023/10/09 01:43:35;;;;;;;;;;;;;;;;;;5031217;28;19986;-77
2023/10/09 01:46:01;;;;;;;;;;;;;;;;;;5030575;28;20022;-77
2023/10/09 01:48:27;;;;;;;;;;;;;;;;;;5031021;28;20040;-77
2023/10/09 01:50:53;;;;;;;;;;;;;;;;;;5031275;28;20408;-77
2023/10/09 01:53:22;;;;;;;;;;;;;;;;;;5030904;28;20458;-78
2023/10/09 01:55:54;;;;;;;;;;;;;;;;;;5030893;28;20410;-78
2023/10/09 02:00:54;;;;;;;;;;;;;;;;;;5034468;28;19983;-77
2023/10/09 02:03:23;;;;;;;;;;;;;;;;;;5034610;28;19982;-79
2023/10/09 02:05:50;;;;;;;;;;;;;;;;;;5032915;28;20012;-77
2023/10/09 02:08:21;;;;;;;;;;;;;;;;;;5034581;28;20381;-76
2023/10/09 02:10:47;;;;;;;;;;;;;;;;;;5033198;28;19986;-77
2023/10/09 02:13:35;;;;;;;;;;;;;;;;;;5034343;28;20010;-78
2023/10/09 02:16:28;;;;;;;;;;;;;;;;;;5034115;28;19993;-74
2023/10/09 02:18:53;;;;;;;;;;;;;;;;;;5053011;28;20035;-74
2023/10/09 02:21:30;;;;;;;;;;;;;;;;;;5054073;28;19993;-73
2023/10/09 02:23:57;;;;;;;;;;;;;;;;;;5054116;28;20024;-72
2023/10/09 02:26:26;;;;;;;;;;;;;;;;;;5053888;28;19993;-74
2023/10/09 02:28:58;;;;;;;;;;;;;;;;;;5053932;28;20054;-73
2023/10/09 02:31:26;;;;;;;;;;;;;;;;;;5053835;28;20013;-73
2023/10/09 02:33:55;;;;;;;;;;;;;;;;;;5053853;28;20065;-74
2023/10/09 02:36:21;;;;;;;;;;;;;;;;;;5053653;28;20043;-73
2023/10/09 02:38:48;;;;;;;;;;;;;;;;;;5054002;28;20074;-73
2023/10/09 02:43:47;;;;;;;;;;;;;;;;;;5053720;28;20127;-75
2023/10/09 02:48:57;;;;;;;;;;;;;;;;;;5053518;28;19993;-75
2023/10/09 02:53:52;;;;;;;;;;;;;;;;;;5053744;28;20032;-75
2023/10/09 02:56:23;;;;;;;;;;;;;;;;;;5053385;28;20025;-75
2023/10/09 02:58:49;;;;;;;;;;;;;;;;;;5052927;28;19994;-75
2023/10/09 03:01:15;;;;;;;;;;;;;;;;;;5053431;28;19986;-74
2023/10/09 03:03:46;;;;;;;;;;;;;;;;;;5053158;28;19986;-74
2023/10/09 03:06:28;;;;;;;;;;;;;;;;;;5053342;28;20075;-75
2023/10/09 03:08:54;;;;;;;;;;;;;;;;;;5053314;28;19985;-72
2023/10/09 03:11:20;;;;;;;;;;;;;;;;;;5052775;28;20012;-74
2023/10/09 03:13:47;;;;;;;;;;;;;;;;;;5053205;28;20073;-74
2023/10/09 03:16:18;;;;;;;;;;;;;;;;;;5053142;28;20032;-72
2023/10/09 03:18:44;;;;;;;;;;;;;;;;;;5053020;28;20072;-72
2023/10/09 03:21:10;;;;;;;;;;;;;;;;;;5053235;28;20084;-74
2023/10/09 03:23:36;;;;;;;;;;;;;;;;;;5051612;28;20065;-75
2023/10/09 03:26:04;;;;;;;;;;;;;;;;;;5052835;28;19992;-76
2023/10/09 03:28:30;;;;;;;;;;;;;;;;;;5051534;28;19986;-76
2023/10/09 03:30:59;;;;;;;;;;;;;;;;;;5052865;28;19986;-75
2023/10/09 03:33:25;;;;;;;;;;;;;;;;;;5053033;28;20052;-75
2023/10/09 03:35:51;;;;;;;;;;;;;;;;;;5053036;28;20040;-76
2023/10/09 03:38:18;;;;;;;;;;;;;;;;;;5052453;28;19992;-76
2023/10/09 03:40:44;;;;;;;;;;;;;;;;;;5052669;28;19986;-75
2023/10/09 03:43:11;;;;;;;;;;;;;;;;;;5052650;28;19982;-75
2023/10/09 03:45:39;;;;;;;;;;;;;;;;;;5052180;28;20147;-74
2023/10/09 03:50:37;;;;;;;;;;;;;;;;;;5052244;28;20021;-78
2023/10/09 03:53:06;;;;;;;;;;;;;;;;;;5052317;28;20206;-77
2023/10/09 03:55:32;;;;;;;;;;;;;;;;;;5052188;28;20068;-76
2023/10/09 03:57:59;;;;;;;;;;;;;;;;;;5052172;28;20021;-75
2023/10/09 04:00:28;;;;;;;;;;;;;;;;;;5052093;28;20029;-75
2023/10/09 04:02:54;;;;;;;;;;;;;;;;;;5052058;28;19988;-76
2023/10/09 04:05:20;;;;;;;;;;;;;;;;;;5052139;28;19997;-76
2023/10/09 04:07:48;;;;;;;;;;;;;;;;;;5051888;28;19987;-75
2023/10/09 04:10:42;;;;;;;;;;;;;;;;;;5051936;28;20591;-76
2023/10/09 04:13:11;;;;;;;;;;;;;;;;;;5051939;28;20527;-76
2023/10/09 04:15:37;;;;;;;;;;;;;;;;;;5051906;28;19986;-76
2023/10/09 04:18:06;;;;;;;;;;;;;;;;;;5051619;28;19985;-74
2023/10/09 04:23:16;;;;;;;;;;;;;;;;;;5051112;28;19990;-76
2023/10/09 04:25:42;;;;;;;;;;;;;;;;;;5051609;28;19989;-68
2023/10/09 04:28:22;;;;;;;;;;;;;;;;;;5048956;28;20126;-69
2023/10/09 04:30:53;;;;;;;;;;;;;;;;;;5051435;28;20432;-69
2023/10/09 04:33:40;;;;;;;;;;;;;;;;;;5044197;28;20053;-68
2023/10/09 04:38:55;;;;;;;;;;;;;;;;;;5036742;28;20039;-68
2023/10/09 04:41:27;;;;;;;;;;;;;;;;;;5043942;28;19986;-69
2023/10/09 04:44:03;;;;;;;;;;;;;;;;;;5051194;28;20438;-68
2023/10/09 04:46:31;;;;;;;;;;;;;;;;;;5051162;28;20025;-69
2023/10/09 04:49:15;;;;;;;;;;;;;;;;;;5047182;28;19994;-69
2023/10/09 04:51:58;;;;;;;;;;;;;;;;;;5035541;28;20050;-68
2023/10/09 04:54:39;;;;;;;;;;;;;;;;;;5044719;28;20056;-69
2023/10/09 04:57:13;;;;;;;;;;;;;;;;;;5036938;28;19985;-69
2023/10/09 04:59:47;;;;;;;;;;;;;;;;;;5041506;28;19986;-69
2023/10/09 05:02:19;;;;;;;;;;;;;;;;;;5038250;28;19992;-68
2023/10/09 05:04:47;;;;;;;;;;;;;;;;;;5048762;28;20377;-70
2023/10/09 05:07:22;;;;;;;;;;;;;;;;;;5038698;28;20446;-69
2023/10/09 05:10:09;;;;;;;;;;;;;;;;;;5050842;28;19981;-70
2023/10/09 05:12:41;;;;;;;;;;;;;;;;;;5050950;28;20005;-71
2023/10/09 05:15:12;;;;;;;;;;;;;;;;;;5051148;28;19985;-73
2023/10/09 05:17:39;;;;;;;;;;;;;;;;;;5051362;28;19985;-73
2023/10/09 05:22:58;;;;;;;;;;;;;;;;;;5050098;28;19981;-71
2023/10/09 05:26:26;;;;;;;;;;;;;;;;;;5049548;28;19990;-74
2023/10/09 05:28:48;;;;;;;;;;;;;;;;;;5054860;28;20084;-78
2023/10/09 05:31:44;;;;;;;;;;;;;;;;;;5051433;28;20076;-79
2023/10/09 05:34:01;;;;;;;;;;;;;;;;;;5046634;28;20029;-77
2023/10/09 05:38:59;;;;;;;;;;;;;;;;;;5037689;28;19989;-73
2023/10/09 05:41:45;;;;;;;;;;;;;;;;;;5050139;28;20044;-71
2023/10/09 05:49:54;;;;;;;;;;;;;;;;;;5033923;28;20136;-70
2023/10/09 06:06:06;;;;;;;;;;;;;;;;;;5035314;28;20001;-68
2023/10/09 06:11:38;;;;;;;;;;;;;;;;;;5034493;28;19982;-69
2023/10/09 06:14:03;;;;;;;;;;;;;;;;;;5034158;28;19990;-68
2023/10/09 06:16:41;;;;;;;;;;;;;;;;;;5037606;28;19989;-68
2023/10/09 06:24:41;;;;;;;;;;;;;;;;;;5037559;28;19986;-68
2023/10/09 06:29:36;;;;;;;;;;;;;;;;;;5054227;28;20021;-68
2023/10/09 06:34:51;;;;;;;;;;;;;;;;;;5054032;28;20042;-67
2023/10/09 06:37:30;;;;;;;;;;;;;;;;;;5039434;28;20358;-69
2023/10/09 06:45:09;;;;;;;;;;;;;;;;;;5036372;28;20063;-73
2023/10/09 06:47:41;;;;;;;;;;;;;;;;;;5039787;28;20446;-71
2023/10/09 06:52:57;;;;;;;;;;;;;;;;;;5047429;28;20017;-68
2023/10/09 06:55:33;;;;;;;;;;;;;;;;;;5033788;28;19982;-72
2023/10/09 06:58:01;;;;;;;;;;;;;;;;;;5051463;28;20001;-73
2023/10/09 07:03:12;;;;;;;;;;;;;;;;;;5033342;28;20480;-71
2023/10/09 07:06:00;;;;;;;;;;;;;;;;;;5033238;28;20028;-70
2023/10/09 07:08:36;;;;;;;;;;;;;;;;;;5035276;28;20032;-69
2023/10/09 07:11:21;;;;;;;;;;;;;;;;;;5034821;28;19996;-68
2023/10/09 07:13:54;;;;;;;;;;;;;;;;;;5044045;28;19997;-67
2023/10/09 07:16:38;;;;;;;;;;;;;;;;;;5053193;28;20036;-68
2023/10/09 07:19:19;;;;;;;;;;;;;;;;;;5049276;28;19997;-68
2023/10/09 07:21:53;;;;;;;;;;;;;;;;;;5044849;28;20076;-68
2023/10/09 07:24:24;;;;;;;;;;;;;;;;;;5033175;28;20560;-68
2023/10/09 07:26:53;;;;;;;;;;;;;;;;;;5033091;28;20351;-67
2023/10/09 07:29:21;;;;;;;;;;;;;;;;;;5032946;28;20504;-68
2023/10/09 07:31:56;;;;;;;;;;;;;;;;;;5031647;28;20006;-68
2023/10/09 07:34:33;;;;;;;;;;;;;;;;;;5032627;28;19994;-67
2023/10/09 07:37:03;;;;;;;;;;;;;;;;;;5032853;28;19990;-67
2023/10/09 07:39:34;;;;;;;;;;;;;;;;;;5032885;28;20017;-68
2023/10/09 07:42:15;;;;;;;;;;;;;;;;;;5033030;28;20032;-68
2023/10/09 07:44:42;;;;;;;;;;;;;;;;;;5032500;28;19981;-68
2023/10/09 07:47:17;;;;;;;;;;;;;;;;;;5032906;28;20001;-68
2023/10/09 07:49:48;;;;;;;;;;;;;;;;;;5031849;28;19985;-67
2023/10/09 07:52:14;;;;;;;;;;;;;;;;;;5031088;28;20425;-67
2023/10/09 07:54:49;;;;;;;;;;;;;;;;;;5032565;28;20032;-67
2023/10/09 07:57:25;;;;;;;;;;;;;;;;;;5032609;28;19982;-67
2023/10/09 08:00:12;;;;;;;;;;;;;;;;;;5032515;28;19990;-68
2023/10/09 08:02:38;;;;;;;;;;;;;;;;;;5032555;28;20024;-68
2023/10/09 08:05:18;;;;;;;;;;;;;;;;;;5032364;28;20002;-68
2023/10/09 08:07:54;;;;;;;;;;;;;;;;;;5032325;28;20084;-68
2023/10/09 08:15:21;;;;;;;;;;;;;;;;;;5032326;28;19989;-68
2023/10/09 08:18:03;;;;;;;;;;;;;;;;;;5032190;28;19982;-68
2023/10/09 08:20:36;;;;;;;;;;;;;;;;;;5031961;28;20036;-67
2023/10/09 08:23:04;;;;;;;;;;;;;;;;;;5031973;28;20036;-67
2023/10/09 08:25:34;;;;;;;;;;;;;;;;;;5032294;28;20391;-67
2023/10/09 08:35:55;;;;;;;;;;;;;;;;;;5032098;28;20488;-68
2023/10/09 08:38:23;;;;;;;;;;;;;;;;;;5032185;28;20033;-67
2023/10/09 08:40:50;;;;;;;;;;;;;;;;;;5031914;28;20015;-67
2023/10/09 08:43:17;;;;;;;;;;;;;;;;;;5031765;28;19983;-68
2023/10/09 08:45:44;;;;;;;;;;;;;;;;;;5031550;28;20079;-68
2023/10/09 08:48:15;;;;;;;;;;;;;;;;;;5031622;28;20485;-68
2023/10/09 08:50:42;;;;;;;;;;;;;;;;;;5031742;28;20021;-68
2023/10/09 08:53:07;;;;;;;;;;;;;;;;;;5031653;28;20014;-67
2023/10/09 08:55:33;;;;;;;;;;;;;;;;;;5031682;28;20371;-67
2023/10/09 08:57:59;;;;;;;;;;;;;;;;;;5032056;28;19989;-67
2023/10/09 09:00:25;;;;;;;;;;;;;;;;;;5031707;28;20401;-69
2023/10/09 09:02:53;;;;;;;;;;;;;;;;;;5031531;28;20043;-68
2023/10/09 09:05:19;;;;;;;;;;;;;;;;;;5031629;28;19998;-67
2023/10/09 09:07:44;;;;;;;;;;;;;;;;;;5032545;28;19993;-67
2023/10/09 09:10:23;;;;;;;;;;;;;;;;;;5037895;28;19994;-66
2023/10/09 09:13:00;;;;;;;;;;;;;;;;;;5037932;28;20339;-67
2023/10/09 09:15:26;;;;;;;;;;;;;;;;;;5037007;28;19993;-68
2023/10/09 09:17:53;;;;;;;;;;;;;;;;;;5038196;28;20404;-66
2023/10/09 09:20:22;;;;;;;;;;;;;;;;;;5038012;28;19987;-66
2023/10/09 09:22:48;;;;;;;;;;;;;;;;;;5037024;28;20081;-68
2023/10/09 09:25:16;;;;;;;;;;;;;;;;;;5037864;28;19990;-68
2023/10/09 09:27:42;;;;;;;;;;;;;;;;;;5037997;28;20425;-69
2023/10/09 09:30:23;;;;;;;;;;;;;;;;;;5037775;28;20044;-68
2023/10/09 09:33:15;;;;;;;;;;;;;;;;;;5038162;28;20010;-70
2023/10/09 09:35:35;;;;;;;;;;;;;;;;;;5037730;28;20401;-68
2023/10/09 09:38:05;;;;;;;;;;;;;;;;;;5037865;28;20435;-67
2023/10/09 09:40:31;;;;;;;;;;;;;;;;;;5037895;28;20018;-66
2023/10/09 09:42:57;;;;;;;;;;;;;;;;;;5037945;28;20433;-68
2023/10/09 09:45:24;;;;;;;;;;;;;;;;;;5037599;28;20060;-68
2023/10/09 09:47:54;;;;;;;;;;;;;;;;;;5037798;28;19982;-68
2023/10/09 09:50:29;;;;;;;;;;;;;;;;;;5037702;28;19986;-68
2023/10/09 09:52:55;;;;;;;;;;;;;;;;;;5037801;28;20244;-68
2023/10/09 09:55:30;;;;;;;;;;;;;;;;;;5037814;28;20029;-67
2023/10/09 09:57:58;;;;;;;;;;;;;;;;;;5036930;28;20491;-67
2023/10/09 10:00:30;;;;;;;;;;;;;;;;;;5037602;28;20040;-68
2023/10/09 10:02:57;;;;;;;;;;;;;;;;;;5037899;28;20080;-68
2023/10/09 10:05:23;;;;;;;;;;;;;;;;;;5037599;28;19998;-68
2023/10/09 10:07:49;;;;;;;;;;;;;;;;;;5037619;28;20060;-68
2023/10/09 10:10:15;;;;;;;;;;;;;;;;;;5037777;28;20005;-67
2023/10/09 10:12:41;;;;;;;;;;;;;;;;;;5037433;28;20378;-68
2023/10/09 10:15:16;;;;;;;;;;;;;;;;;;5037675;28;19986;-67
2023/10/09 10:17:42;;;;;;;;;;;;;;;;;;5037465;28;20465;-67
2023/10/09 10:22:51;;;;;;;;;;;;;;;;;;5034319;28;20380;-67
2023/10/09 10:25:18;;;;;;;;;;;;;;;;;;5034482;28;19989;-67
2023/10/09 10:28:00;;;;;;;;;;;;;;;;;;5034587;28;19986;-66
2023/10/09 10:30:31;;;;;;;;;;;;;;;;;;5034505;28;19986;-67
2023/10/09 10:33:09;;;;;;;;;;;;;;;;;;5032775;28;20432;-67
2023/10/09 10:38:15;;;;;;;;;;;;;;;;;;5034196;28;19986;-68
2023/10/09 10:40:45;;;;;;;;;;;;;;;;;;5034182;28;19997;-67
2023/10/09 10:43:31;;;;;;;;;;;;;;;;;;5032862;28;20040;-66
2023/10/09 10:45:57;;;;;;;;;;;;;;;;;;5033408;28;20021;-66
2023/10/09 10:48:36;;;;;;;;;;;;;;;;;;5034020;28;19986;-67
2023/10/09 10:51:02;;;;;;;;;;;;;;;;;;5032983;28;20318;-68
2023/10/09 10:53:34;;;;;;;;;;;;;;;;;;5033749;28;20491;-67
2023/10/09 10:58:39;;;;;;;;;;;;;;;;;;5033690;28;20342;-69
2023/10/09 11:01:14;;;;;;;;;;;;;;;;;;5033819;28;19990;-68
2023/10/09 11:03:55;;;;;;;;;;;;;;;;;;5033511;28;20454;-67
2023/10/09 11:06:21;;;;;;;;;;;;;;;;;;5033506;28;20006;-68
2023/10/09 11:08:54;;;;;;;;;;;;;;;;;;5033396;28;19990;-68
2023/10/09 11:11:20;;;;;;;;;;;;;;;;;;5033222;28;20468;-68
2023/10/09 11:13:58;;;;;;;;;;;;;;;;;;5033530;28;20097;-67
2023/10/09 11:16:42;;;;;;;;;;;;;;;;;;5033431;28;19993;-67
2023/10/09 11:22:28;;;;;;;;;;;;;;;;;;5033396;28;20012;-68
2023/10/09 11:24:40;;;;;;;;;;;;;;;;;;5032658;28;19993;-68
2023/10/09 11:27:06;;;;;;;;;;;;;;;;;;5033238;28;19982;-68
2023/10/09 11:29:52;;;;;;;;;;;;;;;;;;5033196;28;19986;-67
2023/10/09 11:32:32;;;;;;;;;;;;;;;;;;5032390;28;20014;-66
2023/10/09 11:34:58;;;;;;;;;;;;;;;;;;5033273;28;19986;-68
2023/10/09 11:39:56;;;;;;;;;;;;;;;;;;5033124;28;20233;-68
2023/10/09 11:45:28;;;;;;;;;;;;;;;;;;5032734;28;20024;-67
2023/10/09 11:47:57;;;;;;;;;;;;;;;;;;5032910;28;20454;-67
2023/10/09 11:50:30;;;;;;;;;;;;;;;;;;5032839;28;20069;-68
2023/10/09 11:53:08;;;;;;;;;;;;;;;;;;5032776;28;20111;-66
2023/10/09 11:55:34;;;;;;;;;;;;;;;;;;5032371;28;20451;-68
2023/10/09 11:58:02;;;;;;;;;;;;;;;;;;5032689;28;19982;-67
2023/10/09 12:00:29;;;;;;;;;;;;;;;;;;5032454;28;20462;-67
2023/10/09 12:02:55;;;;;;;;;;;;;;;;;;5032508;28;20447;-68
2023/10/09 12:05:21;;;;;;;;;;;;;;;;;;5032275;28;20009;-67
2023/10/09 12:07:47;;;;;;;;;;;;;;;;;;5032306;28;20076;-67
2023/10/09 12:10:24;;;;;;;;;;;;;;;;;;5032433;28;19986;-66
2023/10/09 12:12:50;;;;;;;;;;;;;;;;;;5030907;28;20045;-67
2023/10/09 12:15:17;;;;;;;;;;;;;;;;;;5032316;28;20013;-67
2023/10/09 12:17:44;;;;;;;;;;;;;;;;;;5032081;28;20040;-67
2023/10/09 12:20:21;;;;;;;;;;;;;;;;;;5032287;28;19990;-68
2023/10/09 12:22:47;;;;;;;;;;;;;;;;;;5031996;28;20393;-68
2023/10/09 12:25:14;;;;;;;;;;;;;;;;;;5032271;28;19986;-67
2023/10/09 12:27:42;;;;;;;;;;;;;;;;;;5032199;28;19986;-68
2023/10/09 12:30:08;;;;;;;;;;;;;;;;;;5030918;28;20092;-68
2023/10/09 12:32:36;;;;;;;;;;;;;;;;;;5031899;28;20128;-67
2023/10/09 12:35:02;;;;;;;;;;;;;;;;;;5031868;28;19982;-67
2023/10/09 12:37:28;;;;;;;;;;;;;;;;;;5031709;28;20067;-68
2023/10/09 12:39:56;;;;;;;;;;;;;;;;;;5031976;28;20486;-68
2023/10/09 12:42:22;;;;;;;;;;;;;;;;;;5031113;28;19986;-67
2023/10/09 12:44:49;;;;;;;;;;;;;;;;;;5031462;28;20016;-67
2023/10/09 12:47:15;;;;;;;;;;;;;;;;;;5031750;28;20354;-66
2023/10/09 12:49:41;;;;;;;;;;;;;;;;;;5031645;28;20423;-68
2023/10/09 12:52:15;;;;;;;;;;;;;;;;;;5031830;28;20010;-68
2023/10/09 12:54:41;;;;;;;;;;;;;;;;;;5031627;28;19989;-67
2023/10/09 12:57:13;;;;;;;;;;;;;;;;;;5031701;28;19985;-68
2023/10/09 12:59:39;;;;;;;;;;;;;;;;;;5030203;28;20394;-67
2023/10/09 13:02:05;;;;;;;;;;;;;;;;;;5031516;28;19982;-67
2023/10/09 13:04:31;;;;;;;;;;;;;;;;;;5031464;28;19990;-67
2023/10/09 13:07:02;;;;;;;;;;;;;;;;;;5031422;28;20040;-67
2023/10/09 13:10:08;;;;;;;;;;;;;;;;;;5030429;28;19990;-68
2023/10/09 13:12:17;;;;;;;;;;;;;;;;;;5031457;28;20105;-68
2023/10/09 13:14:45;;;;;;;;;;;;;;;;;;5031364;28;20033;-67
2023/10/09 13:17:11;;;;;;;;;;;;;;;;;;5031411;28;19990;-67
2023/10/09 13:19:37;;;;;;;;;;;;;;;;;;5031281;28;20001;-67
2023/10/09 13:22:03;;;;;;;;;;;;;;;;;;5031338;28;20008;-67
2023/10/09 13:24:30;;;;;;;;;;;;;;;;;;5031369;28;19982;-67
2023/10/09 13:26:58;;;;;;;;;;;;;;;;;;5031582;28;20101;-67
2023/10/09 13:29:24;;;;;;;;;;;;;;;;;;5031470;28;20029;-67
2023/10/09 13:31:52;;;;;;;;;;;;;;;;;;5031288;28;20048;-67
2023/10/09 13:34:18;;;;;;;;;;;;;;;;;;5031708;28;20011;-67
2023/10/09 13:36:53;;;;;;;;;;;;;;;;;;5031606;28;20127;-67
2023/10/09 13:39:26;;;;;;;;;;;;;;;;;;5031719;28;19990;-67
2023/10/09 13:41:57;;;;;;;;;;;;;;;;;;5031320;28;20431;-68
2023/10/09 13:44:23;;;;;;;;;;;;;;;;;;5029965;28;19986;-67
2023/10/09 13:46:50;;;;;;;;;;;;;;;;;;5031346;28;20001;-67
2023/10/09 13:49:16;;;;;;;;;;;;;;;;;;5031248;28;20058;-68
2023/10/09 13:51:44;;;;;;;;;;;;;;;;;;5031546;28;20101;-67
2023/10/09 13:54:10;;;;;;;;;;;;;;;;;;5032016;28;20477;-67
2023/10/09 13:56:39;;;;;;;;;;;;;;;;;;5034769;28;19986;-67
2023/10/09 13:59:10;;;;;;;;;;;;;;;;;;5034905;28;20013;-67
2023/10/09 14:01:36;;;;;;;;;;;;;;;;;;5034807;28;19986;-67
2023/10/09 14:04:06;;;;;;;;;;;;;;;;;;5034659;28;19989;-66
2023/10/09 14:06:32;;;;;;;;;;;;;;;;;;5034706;28;20009;-67
2023/10/09 14:08:58;;;;;;;;;;;;;;;;;;5034485;28;19986;-66
2023/10/09 14:11:24;;;;;;;;;;;;;;;;;;5034847;28;20245;-66
2023/10/09 14:13:51;;;;;;;;;;;;;;;;;;5034402;28;20036;-66
2023/10/09 14:16:32;;;;;;;;;;;;;;;;;;5034640;28;20582;-67
2023/10/09 14:18:59;;;;;;;;;;;;;;;;;;5034515;28;19986;-67
2023/10/09 14:21:25;;;;;;;;;;;;;;;;;;5034635;28;19993;-67
2023/10/09 14:23:51;;;;;;;;;;;;;;;;;;5034235;28;20036;-68
2023/10/09 14:26:18;;;;;;;;;;;;;;;;;;5034201;28;19982;-67
2023/10/09 14:28:44;;;;;;;;;;;;;;;;;;5034319;28;19993;-67
2023/10/09 14:31:12;;;;;;;;;;;;;;;;;;5034103;28;19982;-67
2023/10/09 14:33:40;;;;;;;;;;;;;;;;;;5034482;28;20057;-68
2023/10/09 14:36:07;;;;;;;;;;;;;;;;;;5034110;28;19982;-68
2023/10/09 14:38:38;;;;;;;;;;;;;;;;;;5033966;28;20367;-67
2023/10/09 14:41:03;;;;;;;;;;;;;;;;;;5033807;28;19986;-68
2023/10/09 14:43:33;;;;;;;;;;;;;;;;;;5033939;28;19993;-68
2023/10/09 14:45:59;;;;;;;;;;;;;;;;;;5033756;28;20029;-68
2023/10/09 14:48:28;;;;;;;;;;;;;;;;;;5033958;28;19990;-67
2023/10/09 14:50:54;;;;;;;;;;;;;;;;;;5040763;28;20442;-68
2023/10/09 14:53:20;;;;;;;;;;;;;;;;;;5048327;28;20061;-69
2023/10/09 14:55:47;;;;;;;;;;;;;;;;;;5048228;28;20032;-69
2023/10/09 14:58:13;;;;;;;;;;;;;;;;;;5033532;28;20029;-69
2023/10/09 15:00:46;;;;;;;;;;;;;;;;;;5044134;28;20033;-71
2023/10/09 15:03:14;;;;;;;;;;;;;;;;;;5033606;28;19992;-69
2023/10/09 15:05:41;;;;;;;;;;;;;;;;;;5032764;28;20068;-68
2023/10/09 15:08:10;;;;;;;;;;;;;;;;;;5033403;28;20052;-69
2023/10/09 15:10:37;;;;;;;;;;;;;;;;;;5033190;28;20093;-69
2023/10/09 15:13:04;;;;;;;;;;;;;;;;;;5039850;28;20375;-69
2023/10/09 15:15:31;;;;;;;;;;;;;;;;;;5053142;28;19993;-68
2023/10/09 15:17:56;;;;;;;;;;;;;;;;;;5048406;28;19990;-67
2023/10/09 15:20:22;;;;;;;;;;;;;;;;;;5033317;28;19986;-69
2023/10/09 15:22:48;;;;;;;;;;;;;;;;;;5033075;28;19993;-69
2023/10/09 15:25:14;;;;;;;;;;;;;;;;;;5033141;28;19986;-69
2023/10/09 15:27:40;;;;;;;;;;;;;;;;;;5033404;28;19990;-70
2023/10/09 15:30:07;;;;;;;;;;;;;;;;;;5033112;28;20005;-70
2023/10/09 15:32:34;;;;;;;;;;;;;;;;;;5032931;28;20195;-69
2023/10/09 15:35:02;;;;;;;;;;;;;;;;;;5033427;28;19990;-70
2023/10/09 15:37:29;;;;;;;;;;;;;;;;;;5032862;28;19982;-70
2023/10/09 15:39:55;;;;;;;;;;;;;;;;;;5032884;28;19986;-70
2023/10/09 15:42:22;;;;;;;;;;;;;;;;;;5032755;28;19986;-69
2023/10/09 15:44:48;;;;;;;;;;;;;;;;;;5032800;28;20014;-69
2023/10/09 15:47:15;;;;;;;;;;;;;;;;;;5032718;28;19996;-69
2023/10/09 15:49:43;;;;;;;;;;;;;;;;;;5040126;28;19996;-69
2023/10/09 15:52:13;;;;;;;;;;;;;;;;;;5046315;28;20006;-69
2023/10/09 15:54:40;;;;;;;;;;;;;;;;;;5032810;28;20093;-69
2023/10/09 15:57:06;;;;;;;;;;;;;;;;;;5033215;28;20009;-72
2023/10/09 15:59:32;;;;;;;;;;;;;;;;;;5036376;28;19986;-70
2023/10/09 16:01:59;;;;;;;;;;;;;;;;;;5031918;28;19997;-69
2023/10/09 16:04:25;;;;;;;;;;;;;;;;;;5045161;28;19986;-68
2023/10/09 16:06:52;;;;;;;;;;;;;;;;;;5038759;28;19997;-71
2023/10/09 16:09:21;;;;;;;;;;;;;;;;;;5044903;28;19990;-71
2023/10/09 16:11:47;;;;;;;;;;;;;;;;;;5041804;28;20020;-70
2023/10/09 16:14:15;;;;;;;;;;;;;;;;;;5052296;28;19992;-70
2023/10/09 16:16:45;;;;;;;;;;;;;;;;;;5052122;28;20076;-70
2023/10/09 16:19:11;;;;;;;;;;;;;;;;;;5051213;28;19986;-69
2023/10/09 16:21:37;;;;;;;;;;;;;;;;;;5051968;28;20040;-69
2023/10/09 16:24:05;;;;;;;;;;;;;;;;;;5040738;28;20032;-70
2023/10/09 16:26:39;;;;;;;;;;;;;;;;;;5041051;28;19990;-70
2023/10/09 16:29:07;;;;;;;;;;;;;;;;;;5050543;28;19986;-69
2023/10/09 16:31:35;;;;;;;;;;;;;;;;;;5051871;28;20461;-70
2023/10/09 16:34:01;;;;;;;;;;;;;;;;;;5051613;28;19991;-71
2023/10/09 16:36:27;;;;;;;;;;;;;;;;;;5052055;28;20058;-70
2023/10/09 16:38:55;;;;;;;;;;;;;;;;;;5052026;28;19986;-71
2023/10/09 16:41:25;;;;;;;;;;;;;;;;;;5045587;28;20081;-72
2023/10/09 16:43:52;;;;;;;;;;;;;;;;;;5039845;28;20524;-71
2023/10/09 16:46:21;;;;;;;;;;;;;;;;;;5031387;28;20064;-71
2023/10/09 16:48:51;;;;;;;;;;;;;;;;;;5032031;28;19998;-73
2023/10/09 16:51:21;;;;;;;;;;;;;;;;;;5031727;28;19986;-71
2023/10/09 16:53:51;;;;;;;;;;;;;;;;;;5031330;28;20065;-70
2023/10/09 16:56:19;;;;;;;;;;;;;;;;;;5031498;28;19993;-69
2023/10/09 16:58:45;;;;;;;;;;;;;;;;;;5051491;28;19997;-70
2023/10/09 17:01:11;;;;;;;;;;;;;;;;;;5041903;28;20084;-71
2023/10/09 17:03:41;;;;;;;;;;;;;;;;;;5039519;28;20068;-71
2023/10/09 17:06:09;;;;;;;;;;;;;;;;;;5040897;28;20001;-70
2023/10/09 17:08:41;;;;;;;;;;;;;;;;;;5034490;28;19986;-68
2023/10/09 17:11:09;;;;;;;;;;;;;;;;;;5033186;28;19996;-68
2023/10/09 17:13:37;;;;;;;;;;;;;;;;;;5053683;28;20006;-70
2023/10/09 17:16:03;;;;;;;;;;;;;;;;;;5051513;28;20068;-72
2023/10/09 17:18:29;;;;;;;;;;;;;;;;;;5061366;28;20084;-70
2023/10/09 17:20:55;;;;;;;;;;;;;;;;;;5071285;28;20028;-69
2023/10/09 17:23:21;;;;;;;;;;;;;;;;;;5069749;28;20362;-68
2023/10/09 17:25:47;;;;;;;;;;;;;;;;;;5057906;28;19985;-69
2023/10/09 17:28:19;;;;;;;;;;;;;;;;;;5071477;28;20440;-69
2023/10/09 17:30:45;;;;;;;;;;;;;;;;;;5066092;28;19986;-73
2023/10/09 17:33:11;;;;;;;;;;;;;;;;;;5055371;28;20010;-71
2023/10/09 17:35:37;;;;;;;;;;;;;;;;;;5037493;28;20073;-74
2023/10/09 17:38:04;;;;;;;;;;;;;;;;;;5034063;28;19992;-70
2023/10/09 17:40:30;;;;;;;;;;;;;;;;;;5035159;28;19986;-71
2023/10/09 17:42:56;;;;;;;;;;;;;;;;;;5035035;28;20080;-69
2023/10/09 17:45:23;;;;;;;;;;;;;;;;;;5035044;28;20065;-70
2023/10/09 17:47:49;;;;;;;;;;;;;;;;;;5065923;28;19989;-69
2023/10/09 17:50:15;;;;;;;;;;;;;;;;;;5074783;28;19989;-68
2023/10/09 17:52:42;;;;;;;;;;;;;;;;;;5036901;28;20581;-69
2023/10/09 17:55:11;;;;;;;;;;;;;;;;;;5034801;28;19986;-67
2023/10/09 17:57:39;;;;;;;;;;;;;;;;;;5034820;28;19987;-69
2023/10/09 18:00:08;;;;;;;;;;;;;;;;;;5034812;28;19994;-69
2023/10/09 18:02:35;;;;;;;;;;;;;;;;;;5043786;28;19986;-69
2023/10/09 18:05:01;;;;;;;;;;;;;;;;;;5054580;28;20481;-69
2023/10/09 18:07:27;;;;;;;;;;;;;;;;;;5055218;28;19992;-67
2023/10/09 18:09:53;;;;;;;;;;;;;;;;;;5034668;28;19986;-69
2023/10/09 18:12:19;;;;;;;;;;;;;;;;;;5035069;28;20006;-69
2023/10/09 18:14:46;;;;;;;;;;;;;;;;;;5054476;28;20047;-69
2023/10/09 18:17:19;;;;;;;;;;;;;;;;;;5052991;28;19985;-69
2023/10/09 18:19:45;;;;;;;;;;;;;;;;;;5055474;28;20036;-68
2023/10/09 18:22:12;;;;;;;;;;;;;;;;;;5052240;28;20029;-70
2023/10/09 18:24:40;;;;;;;;;;;;;;;;;;5051197;28;20084;-69
2023/10/09 18:27:11;;;;;;;;;;;;;;;;;;5034375;28;19986;-70
2023/10/09 18:29:37;;;;;;;;;;;;;;;;;;5034223;28;19990;-68
2023/10/09 18:32:03;;;;;;;;;;;;;;;;;;5033967;28;20010;-69
2023/10/09 18:34:30;;;;;;;;;;;;;;;;;;5034246;28;20065;-69
2023/10/09 18:36:56;;;;;;;;;;;;;;;;;;5034123;28;19993;-70
2023/10/09 18:39:22;;;;;;;;;;;;;;;;;;5034340;28;20167;-69
2023/10/09 18:41:48;;;;;;;;;;;;;;;;;;5033230;28;20073;-70
2023/10/09 18:44:14;;;;;;;;;;;;;;;;;;5034212;28;19987;-69
2023/10/09 18:46:40;;;;;;;;;;;;;;;;;;5033735;28;20375;-69
2023/10/09 18:49:09;;;;;;;;;;;;;;;;;;5033812;28;19986;-69
2023/10/09 18:51:35;;;;;;;;;;;;;;;;;;5033774;28;20033;-70